sensor_id;sensor_type;location;lat;lon;timestamp;P1;durP1;ratioP1;P2;durP2;ratioP2
7375;SDS011;3728;42.266;24.944;2022-11-20T00:01:27;6.27;;;2.73;;
7375;SDS011;3728;42.266;24.944;2022-11-20T00:03:56;9.00;;;3.17;;
7375;SDS011;3728;42.266;24.944;2022-11-20T00:06:24;12.27;;;3.07;;
7375;SDS011;3728;42.266;24.944;2022-11-20T00:08:57;8.67;;;3.47;;
7375;SDS011;3728;42.266;24.944;2022-11-20T00:11:28;11.03;;;3.70;;
7375;SDS011;3728;42.266;24.944;2022-11-20T00:13:58;12.03;;;3.30;;
7375;SDS011;3728;42.266;24.944;2022-11-20T00:16:28;10.33;;;3.13;;
7375;SDS011;3728;42.266;24.944;2022-11-20T00:18:59;12.67;;;3.23;;
7375;SDS011;3728;42.266;24.944;2022-11-20T00:21:27;7.63;;;3.03;;
7375;SDS011;3728;42.266;24.944;2022-11-20T00:23:56;11.20;;;3.10;;
7375;SDS011;3728;42.266;24.944;2022-11-20T00:26:25;9.20;;;3.50;;
7375;SDS011;3728;42.266;24.944;2022-11-20T00:28:54;10.67;;;3.57;;
7375;SDS011;3728;42.266;24.944;2022-11-20T00:31:25;8.93;;;4.10;;
7375;SDS011;3728;42.266;24.944;2022-11-20T00:33:53;13.83;;;4.83;;
7375;SDS011;3728;42.266;24.944;2022-11-20T00:36:22;10.13;;;4.63;;
7375;SDS011;3728;42.266;24.944;2022-11-20T00:38:55;11.77;;;3.50;;
7375;SDS011;3728;42.266;24.944;2022-11-20T00:41:24;13.60;;;3.63;;
7375;SDS011;3728;42.266;24.944;2022-11-20T00:43:54;10.23;;;3.20;;
7375;SDS011;3728;42.266;24.944;2022-11-20T00:46:23;10.07;;;3.03;;
7375;SDS011;3728;42.266;24.944;2022-11-20T00:48:53;12.80;;;3.83;;
7375;SDS011;3728;42.266;24.944;2022-11-20T00:51:21;11.20;;;3.13;;
7375;SDS011;3728;42.266;24.944;2022-11-20T00:53:51;13.13;;;3.40;;
7375;SDS011;3728;42.266;24.944;2022-11-20T00:56:20;15.13;;;4.17;;
7375;SDS011;3728;42.266;24.944;2022-11-20T00:58:48;8.40;;;3.47;;
7375;SDS011;3728;42.266;24.944;2022-11-20T01:01:20;13.53;;;3.90;;
7375;SDS011;3728;42.266;24.944;2022-11-20T01:03:53;10.43;;;3.07;;
7375;SDS011;3728;42.266;24.944;2022-11-20T01:06:30;14.87;;;3.90;;
7375;SDS011;3728;42.266;24.944;2022-11-20T01:09:08;11.50;;;4.37;;
7375;SDS011;3728;42.266;24.944;2022-11-20T01:11:41;8.90;;;3.30;;
7375;SDS011;3728;42.266;24.944;2022-11-20T01:14:12;12.90;;;3.83;;
7375;SDS011;3728;42.266;24.944;2022-11-20T01:16:44;10.90;;;3.30;;
7375;SDS011;3728;42.266;24.944;2022-11-20T01:19:16;7.83;;;3.30;;
7375;SDS011;3728;42.266;24.944;2022-11-20T01:21:49;10.53;;;3.33;;
7375;SDS011;3728;42.266;24.944;2022-11-20T01:24:20;9.80;;;3.27;;
7375;SDS011;3728;42.266;24.944;2022-11-20T01:26:49;12.03;;;3.47;;
7375;SDS011;3728;42.266;24.944;2022-11-20T01:29:21;9.00;;;3.17;;
7375;SDS011;3728;42.266;24.944;2022-11-20T01:31:51;7.87;;;2.80;;
7375;SDS011;3728;42.266;24.944;2022-11-20T01:34:19;11.60;;;3.40;;
7375;SDS011;3728;42.266;24.944;2022-11-20T01:36:49;9.37;;;3.47;;
7375;SDS011;3728;42.266;24.944;2022-11-20T01:39:21;9.20;;;2.63;;
7375;SDS011;3728;42.266;24.944;2022-11-20T01:41:52;8.60;;;2.93;;
7375;SDS011;3728;42.266;24.944;2022-11-20T01:50:14;10.97;;;2.77;;
7375;SDS011;3728;42.266;24.944;2022-11-20T01:52:55;7.50;;;2.63;;
7375;SDS011;3728;42.266;24.944;2022-11-20T01:55:29;11.30;;;3.20;;
7375;SDS011;3728;42.266;24.944;2022-11-20T01:58:03;7.53;;;2.97;;
7375;SDS011;3728;42.266;24.944;2022-11-20T02:00:32;8.73;;;2.67;;
7375;SDS011;3728;42.266;24.944;2022-11-20T02:03:00;9.50;;;2.87;;
7375;SDS011;3728;42.266;24.944;2022-11-20T02:05:44;8.37;;;3.00;;
7375;SDS011;3728;42.266;24.944;2022-11-20T02:08:41;7.80;;;2.97;;
7375;SDS011;3728;42.266;24.944;2022-11-20T02:11:09;9.10;;;3.03;;
7375;SDS011;3728;42.266;24.944;2022-11-20T02:13:36;8.10;;;2.80;;
7375;SDS011;3728;42.266;24.944;2022-11-20T02:16:15;8.07;;;2.97;;
7375;SDS011;3728;42.266;24.944;2022-11-20T02:18:50;9.20;;;3.00;;
7375;SDS011;3728;42.266;24.944;2022-11-20T02:26:50;8.57;;;3.10;;
7375;SDS011;3728;42.266;24.944;2022-11-20T02:29:23;8.00;;;3.00;;
7375;SDS011;3728;42.266;24.944;2022-11-20T02:32:02;8.17;;;3.13;;
7375;SDS011;3728;42.266;24.944;2022-11-20T02:34:30;10.47;;;3.70;;
7375;SDS011;3728;42.266;24.944;2022-11-20T02:36:58;11.17;;;3.53;;
7375;SDS011;3728;42.266;24.944;2022-11-20T02:39:26;9.57;;;3.20;;
7375;SDS011;3728;42.266;24.944;2022-11-20T02:41:55;12.53;;;3.33;;
7375;SDS011;3728;42.266;24.944;2022-11-20T02:44:23;8.83;;;3.30;;
7375;SDS011;3728;42.266;24.944;2022-11-20T02:46:51;10.87;;;4.13;;
7375;SDS011;3728;42.266;24.944;2022-11-20T02:49:19;12.17;;;3.80;;
7375;SDS011;3728;42.266;24.944;2022-11-20T02:51:47;11.70;;;3.67;;
7375;SDS011;3728;42.266;24.944;2022-11-20T02:54:14;11.03;;;4.20;;
7375;SDS011;3728;42.266;24.944;2022-11-20T02:56:42;15.20;;;5.30;;
7375;SDS011;3728;42.266;24.944;2022-11-20T02:59:10;15.03;;;3.63;;
7375;SDS011;3728;42.266;24.944;2022-11-20T03:01:37;11.50;;;3.60;;
7375;SDS011;3728;42.266;24.944;2022-11-20T03:04:05;7.73;;;2.73;;
7375;SDS011;3728;42.266;24.944;2022-11-20T03:06:32;11.37;;;2.97;;
7375;SDS011;3728;42.266;24.944;2022-11-20T03:09:00;7.80;;;2.90;;
7375;SDS011;3728;42.266;24.944;2022-11-20T03:11:28;10.07;;;3.23;;
7375;SDS011;3728;42.266;24.944;2022-11-20T03:13:56;8.57;;;3.30;;
7375;SDS011;3728;42.266;24.944;2022-11-20T03:16:23;12.43;;;2.97;;
7375;SDS011;3728;42.266;24.944;2022-11-20T03:18:51;7.53;;;3.10;;
7375;SDS011;3728;42.266;24.944;2022-11-20T03:21:19;8.23;;;2.60;;
7375;SDS011;3728;42.266;24.944;2022-11-20T03:23:47;10.63;;;3.00;;
7375;SDS011;3728;42.266;24.944;2022-11-20T03:28:52;11.43;;;3.13;;
7375;SDS011;3728;42.266;24.944;2022-11-20T03:31:26;10.20;;;2.87;;
7375;SDS011;3728;42.266;24.944;2022-11-20T03:34:00;8.40;;;2.73;;
7375;SDS011;3728;42.266;24.944;2022-11-20T03:36:28;7.93;;;3.07;;
7375;SDS011;3728;42.266;24.944;2022-11-20T03:38:57;9.57;;;3.17;;
7375;SDS011;3728;42.266;24.944;2022-11-20T03:41:26;8.50;;;2.90;;
7375;SDS011;3728;42.266;24.944;2022-11-20T03:43:57;9.60;;;3.10;;
7375;SDS011;3728;42.266;24.944;2022-11-20T03:46:28;8.60;;;3.07;;
7375;SDS011;3728;42.266;24.944;2022-11-20T03:48:56;10.83;;;3.00;;
7375;SDS011;3728;42.266;24.944;2022-11-20T03:51:25;7.37;;;2.83;;
7375;SDS011;3728;42.266;24.944;2022-11-20T03:54:00;11.33;;;3.37;;
7375;SDS011;3728;42.266;24.944;2022-11-20T03:56:32;9.83;;;3.10;;
7375;SDS011;3728;42.266;24.944;2022-11-20T03:59:03;9.87;;;2.80;;
7375;SDS011;3728;42.266;24.944;2022-11-20T04:01:32;9.37;;;2.90;;
7375;SDS011;3728;42.266;24.944;2022-11-20T04:04:03;10.83;;;2.97;;
7375;SDS011;3728;42.266;24.944;2022-11-20T04:06:35;11.67;;;3.23;;
7375;SDS011;3728;42.266;24.944;2022-11-20T04:09:04;11.57;;;3.50;;
7375;SDS011;3728;42.266;24.944;2022-11-20T04:11:34;8.23;;;2.97;;
7375;SDS011;3728;42.266;24.944;2022-11-20T04:14:04;10.10;;;3.53;;
7375;SDS011;3728;42.266;24.944;2022-11-20T04:16:34;9.80;;;3.60;;
7375;SDS011;3728;42.266;24.944;2022-11-20T04:19:03;8.20;;;2.83;;
7375;SDS011;3728;42.266;24.944;2022-11-20T04:21:35;14.60;;;3.23;;
7375;SDS011;3728;42.266;24.944;2022-11-20T04:24:03;9.50;;;2.90;;
7375;SDS011;3728;42.266;24.944;2022-11-20T04:26:33;7.77;;;3.50;;
7375;SDS011;3728;42.266;24.944;2022-11-20T04:29:01;9.77;;;2.90;;
7375;SDS011;3728;42.266;24.944;2022-11-20T04:31:31;8.83;;;2.80;;
7375;SDS011;3728;42.266;24.944;2022-11-20T04:34:01;8.27;;;2.90;;
7375;SDS011;3728;42.266;24.944;2022-11-20T04:36:32;9.13;;;2.83;;
7375;SDS011;3728;42.266;24.944;2022-11-20T04:39:01;12.30;;;2.90;;
7375;SDS011;3728;42.266;24.944;2022-11-20T04:41:33;9.43;;;3.10;;
7375;SDS011;3728;42.266;24.944;2022-11-20T04:44:03;10.57;;;2.90;;
7375;SDS011;3728;42.266;24.944;2022-11-20T04:46:36;8.73;;;2.87;;
7375;SDS011;3728;42.266;24.944;2022-11-20T04:49:08;6.33;;;2.83;;
7375;SDS011;3728;42.266;24.944;2022-11-20T04:51:40;7.67;;;2.80;;
7375;SDS011;3728;42.266;24.944;2022-11-20T04:54:08;8.83;;;2.30;;
7375;SDS011;3728;42.266;24.944;2022-11-20T04:56:38;8.13;;;3.43;;
7375;SDS011;3728;42.266;24.944;2022-11-20T04:59:06;9.00;;;3.90;;
7375;SDS011;3728;42.266;24.944;2022-11-20T05:01:33;10.27;;;3.77;;
7375;SDS011;3728;42.266;24.944;2022-11-20T05:04:01;8.90;;;3.53;;
7375;SDS011;3728;42.266;24.944;2022-11-20T05:06:28;9.00;;;3.03;;
7375;SDS011;3728;42.266;24.944;2022-11-20T05:08:56;10.57;;;4.10;;
7375;SDS011;3728;42.266;24.944;2022-11-20T05:11:23;11.17;;;3.80;;
7375;SDS011;3728;42.266;24.944;2022-11-20T05:13:51;7.73;;;3.30;;
7375;SDS011;3728;42.266;24.944;2022-11-20T05:16:20;13.03;;;3.57;;
7375;SDS011;3728;42.266;24.944;2022-11-20T05:18:52;8.83;;;3.60;;
7375;SDS011;3728;42.266;24.944;2022-11-20T05:21:20;7.00;;;3.23;;
7375;SDS011;3728;42.266;24.944;2022-11-20T05:23:48;9.47;;;3.30;;
7375;SDS011;3728;42.266;24.944;2022-11-20T05:26:17;9.63;;;2.97;;
7375;SDS011;3728;42.266;24.944;2022-11-20T05:28:48;11.57;;;3.63;;
7375;SDS011;3728;42.266;24.944;2022-11-20T05:31:18;5.90;;;2.60;;
7375;SDS011;3728;42.266;24.944;2022-11-20T05:33:53;7.70;;;3.10;;
7375;SDS011;3728;42.266;24.944;2022-11-20T05:36:23;10.57;;;4.30;;
7375;SDS011;3728;42.266;24.944;2022-11-20T05:38:51;9.50;;;3.97;;
7375;SDS011;3728;42.266;24.944;2022-11-20T05:41:26;10.03;;;3.80;;
7375;SDS011;3728;42.266;24.944;2022-11-20T05:43:55;9.60;;;3.67;;
7375;SDS011;3728;42.266;24.944;2022-11-20T05:46:24;9.53;;;4.87;;
7375;SDS011;3728;42.266;24.944;2022-11-20T05:48:54;11.57;;;4.67;;
7375;SDS011;3728;42.266;24.944;2022-11-20T05:51:23;11.27;;;4.63;;
7375;SDS011;3728;42.266;24.944;2022-11-20T05:53:55;11.33;;;6.57;;
7375;SDS011;3728;42.266;24.944;2022-11-20T05:56:24;11.63;;;7.27;;
7375;SDS011;3728;42.266;24.944;2022-11-20T05:58:52;7.33;;;4.60;;
7375;SDS011;3728;42.266;24.944;2022-11-20T06:01:21;9.67;;;4.27;;
7375;SDS011;3728;42.266;24.944;2022-11-20T06:03:53;8.53;;;4.33;;
7375;SDS011;3728;42.266;24.944;2022-11-20T06:06:21;8.67;;;3.43;;
7375;SDS011;3728;42.266;24.944;2022-11-20T06:08:51;10.27;;;3.40;;
7375;SDS011;3728;42.266;24.944;2022-11-20T06:11:19;10.93;;;3.67;;
7375;SDS011;3728;42.266;24.944;2022-11-20T06:13:48;10.27;;;4.27;;
7375;SDS011;3728;42.266;24.944;2022-11-20T06:16:17;9.23;;;3.50;;
7375;SDS011;3728;42.266;24.944;2022-11-20T06:18:46;12.20;;;3.53;;
7375;SDS011;3728;42.266;24.944;2022-11-20T06:21:15;9.90;;;3.40;;
7375;SDS011;3728;42.266;24.944;2022-11-20T06:23:46;9.17;;;3.80;;
7375;SDS011;3728;42.266;24.944;2022-11-20T06:26:16;9.90;;;3.07;;
7375;SDS011;3728;42.266;24.944;2022-11-20T06:28:46;10.07;;;3.77;;
7375;SDS011;3728;42.266;24.944;2022-11-20T06:31:16;7.73;;;2.83;;
7375;SDS011;3728;42.266;24.944;2022-11-20T06:33:46;7.93;;;3.00;;
7375;SDS011;3728;42.266;24.944;2022-11-20T06:36:16;6.73;;;2.87;;
7375;SDS011;3728;42.266;24.944;2022-11-20T06:38:47;10.97;;;3.50;;
7375;SDS011;3728;42.266;24.944;2022-11-20T06:41:16;8.10;;;3.40;;
7375;SDS011;3728;42.266;24.944;2022-11-20T06:43:46;8.37;;;3.87;;
7375;SDS011;3728;42.266;24.944;2022-11-20T06:46:15;6.37;;;2.63;;
7375;SDS011;3728;42.266;24.944;2022-11-20T06:48:45;7.03;;;2.97;;
7375;SDS011;3728;42.266;24.944;2022-11-20T06:51:13;12.97;;;4.63;;
7375;SDS011;3728;42.266;24.944;2022-11-20T06:53:41;12.20;;;4.87;;
7375;SDS011;3728;42.266;24.944;2022-11-20T06:56:09;10.27;;;3.73;;
7375;SDS011;3728;42.266;24.944;2022-11-20T06:58:36;8.03;;;3.27;;
7375;SDS011;3728;42.266;24.944;2022-11-20T07:01:06;7.33;;;3.10;;
7375;SDS011;3728;42.266;24.944;2022-11-20T07:03:37;4.70;;;2.33;;
7375;SDS011;3728;42.266;24.944;2022-11-20T07:06:05;5.93;;;2.40;;
7375;SDS011;3728;42.266;24.944;2022-11-20T07:08:33;6.00;;;2.50;;
7375;SDS011;3728;42.266;24.944;2022-11-20T07:11:01;9.57;;;2.37;;
7375;SDS011;3728;42.266;24.944;2022-11-20T07:13:33;6.70;;;2.43;;
7375;SDS011;3728;42.266;24.944;2022-11-20T07:16:03;13.50;;;8.83;;
7375;SDS011;3728;42.266;24.944;2022-11-20T07:18:33;9.47;;;3.87;;
7375;SDS011;3728;42.266;24.944;2022-11-20T07:21:02;8.30;;;2.50;;
7375;SDS011;3728;42.266;24.944;2022-11-20T07:23:35;7.73;;;2.90;;
7375;SDS011;3728;42.266;24.944;2022-11-20T07:26:04;10.10;;;4.83;;
7375;SDS011;3728;42.266;24.944;2022-11-20T07:28:35;7.43;;;2.40;;
7375;SDS011;3728;42.266;24.944;2022-11-20T07:31:03;5.37;;;2.57;;
7375;SDS011;3728;42.266;24.944;2022-11-20T07:33:33;7.30;;;2.63;;
7375;SDS011;3728;42.266;24.944;2022-11-20T07:36:00;7.00;;;2.93;;
7375;SDS011;3728;42.266;24.944;2022-11-20T07:38:30;7.60;;;3.10;;
7375;SDS011;3728;42.266;24.944;2022-11-20T07:41:00;6.97;;;2.37;;
7375;SDS011;3728;42.266;24.944;2022-11-20T07:43:28;7.60;;;2.40;;
7375;SDS011;3728;42.266;24.944;2022-11-20T07:45:56;13.93;;;9.50;;
7375;SDS011;3728;42.266;24.944;2022-11-20T07:48:25;9.57;;;2.87;;
7375;SDS011;3728;42.266;24.944;2022-11-20T07:51:13;6.70;;;2.43;;
7375;SDS011;3728;42.266;24.944;2022-11-20T07:53:41;8.57;;;2.20;;
7375;SDS011;3728;42.266;24.944;2022-11-20T07:56:09;12.20;;;2.40;;
7375;SDS011;3728;42.266;24.944;2022-11-20T07:58:37;5.40;;;1.93;;
7375;SDS011;3728;42.266;24.944;2022-11-20T08:01:05;5.57;;;1.90;;
7375;SDS011;3728;42.266;24.944;2022-11-20T08:03:34;8.27;;;2.40;;
7375;SDS011;3728;42.266;24.944;2022-11-20T08:06:05;4.53;;;2.13;;
7375;SDS011;3728;42.266;24.944;2022-11-20T08:08:33;8.40;;;2.07;;
7375;SDS011;3728;42.266;24.944;2022-11-20T08:11:07;7.13;;;2.77;;
7375;SDS011;3728;42.266;24.944;2022-11-20T08:13:57;9.40;;;3.50;;
7375;SDS011;3728;42.266;24.944;2022-11-20T08:16:41;7.20;;;3.30;;
7375;SDS011;3728;42.266;24.944;2022-11-20T08:19:14;6.47;;;3.20;;
7375;SDS011;3728;42.266;24.944;2022-11-20T08:21:43;6.13;;;3.10;;
7375;SDS011;3728;42.266;24.944;2022-11-20T08:24:11;6.73;;;3.33;;
7375;SDS011;3728;42.266;24.944;2022-11-20T08:26:39;6.77;;;2.90;;
7375;SDS011;3728;42.266;24.944;2022-11-20T08:29:07;6.70;;;2.60;;
7375;SDS011;3728;42.266;24.944;2022-11-20T08:31:35;6.60;;;2.80;;
7375;SDS011;3728;42.266;24.944;2022-11-20T08:34:03;7.30;;;3.00;;
7375;SDS011;3728;42.266;24.944;2022-11-20T08:36:35;9.33;;;2.83;;
7375;SDS011;3728;42.266;24.944;2022-11-20T08:39:03;7.03;;;3.20;;
7375;SDS011;3728;42.266;24.944;2022-11-20T08:41:31;11.00;;;2.80;;
7375;SDS011;3728;42.266;24.944;2022-11-20T08:44:04;11.37;;;3.57;;
7375;SDS011;3728;42.266;24.944;2022-11-20T08:46:35;8.07;;;2.80;;
7375;SDS011;3728;42.266;24.944;2022-11-20T08:49:10;6.87;;;2.17;;
7375;SDS011;3728;42.266;24.944;2022-11-20T08:51:40;5.67;;;2.00;;
7375;SDS011;3728;42.266;24.944;2022-11-20T08:54:08;6.23;;;2.10;;
7375;SDS011;3728;42.266;24.944;2022-11-20T08:56:37;10.43;;;2.30;;
7375;SDS011;3728;42.266;24.944;2022-11-20T08:59:06;5.93;;;2.17;;
7375;SDS011;3728;42.266;24.944;2022-11-20T09:01:54;7.73;;;2.63;;
7375;SDS011;3728;42.266;24.944;2022-11-20T09:04:22;6.00;;;2.53;;
7375;SDS011;3728;42.266;24.944;2022-11-20T09:06:49;9.60;;;2.50;;
7375;SDS011;3728;42.266;24.944;2022-11-20T09:09:17;9.90;;;4.13;;
7375;SDS011;3728;42.266;24.944;2022-11-20T09:11:46;7.67;;;2.40;;
7375;SDS011;3728;42.266;24.944;2022-11-20T09:14:16;5.33;;;2.10;;
7375;SDS011;3728;42.266;24.944;2022-11-20T09:16:44;6.17;;;2.20;;
7375;SDS011;3728;42.266;24.944;2022-11-20T09:19:13;5.57;;;1.90;;
7375;SDS011;3728;42.266;24.944;2022-11-20T09:22:00;4.50;;;2.17;;
7375;SDS011;3728;42.266;24.944;2022-11-20T09:24:28;11.03;;;2.50;;
7375;SDS011;3728;42.266;24.944;2022-11-20T09:26:56;10.57;;;2.53;;
7375;SDS011;3728;42.266;24.944;2022-11-20T09:29:23;8.07;;;2.47;;
7375;SDS011;3728;42.266;24.944;2022-11-20T09:31:51;13.70;;;2.53;;
7375;SDS011;3728;42.266;24.944;2022-11-20T09:34:21;8.23;;;2.50;;
7375;SDS011;3728;42.266;24.944;2022-11-20T09:36:50;11.23;;;2.73;;
7375;SDS011;3728;42.266;24.944;2022-11-20T09:39:17;9.67;;;2.97;;
7375;SDS011;3728;42.266;24.944;2022-11-20T09:48:08;5.23;;;2.23;;
7375;SDS011;3728;42.266;24.944;2022-11-20T09:53:30;9.43;;;2.53;;
7375;SDS011;3728;42.266;24.944;2022-11-20T09:56:33;7.33;;;2.30;;
7375;SDS011;3728;42.266;24.944;2022-11-20T09:59:05;6.90;;;3.33;;
7375;SDS011;3728;42.266;24.944;2022-11-20T10:01:42;11.73;;;2.40;;
7375;SDS011;3728;42.266;24.944;2022-11-20T10:04:17;5.17;;;1.70;;
7375;SDS011;3728;42.266;24.944;2022-11-20T10:09:55;9.90;;;2.60;;
7375;SDS011;3728;42.266;24.944;2022-11-20T10:12:39;13.03;;;3.03;;
7375;SDS011;3728;42.266;24.944;2022-11-20T10:18:04;6.33;;;1.83;;
7375;SDS011;3728;42.266;24.944;2022-11-20T10:24:19;5.40;;;2.00;;
7375;SDS011;3728;42.266;24.944;2022-11-20T10:30:10;6.50;;;2.10;;
7375;SDS011;3728;42.266;24.944;2022-11-20T10:32:43;8.47;;;2.23;;
7375;SDS011;3728;42.266;24.944;2022-11-20T10:38:23;9.37;;;2.70;;
7375;SDS011;3728;42.266;24.944;2022-11-20T10:41:16;9.43;;;4.23;;
7375;SDS011;3728;42.266;24.944;2022-11-20T10:44:09;8.07;;;2.23;;
7375;SDS011;3728;42.266;24.944;2022-11-20T10:47:03;8.50;;;2.00;;
7375;SDS011;3728;42.266;24.944;2022-11-20T10:49:32;6.17;;;1.57;;
7375;SDS011;3728;42.266;24.944;2022-11-20T10:55:03;12.17;;;1.97;;
7375;SDS011;3728;42.266;24.944;2022-11-20T10:58:10;7.73;;;1.90;;
7375;SDS011;3728;42.266;24.944;2022-11-20T11:00:48;7.37;;;1.70;;
7375;SDS011;3728;42.266;24.944;2022-11-20T11:03:24;9.20;;;2.27;;
7375;SDS011;3728;42.266;24.944;2022-11-20T11:06:08;6.63;;;1.93;;
7375;SDS011;3728;42.266;24.944;2022-11-20T11:08:43;9.03;;;2.03;;
7375;SDS011;3728;42.266;24.944;2022-11-20T11:13:48;11.20;;;2.00;;
7375;SDS011;3728;42.266;24.944;2022-11-20T11:16:23;8.77;;;2.20;;
7375;SDS011;3728;42.266;24.944;2022-11-20T11:19:03;10.20;;;2.00;;
7375;SDS011;3728;42.266;24.944;2022-11-20T11:21:59;11.90;;;2.43;;
7375;SDS011;3728;42.266;24.944;2022-11-20T11:24:27;10.80;;;2.40;;
7375;SDS011;3728;42.266;24.944;2022-11-20T11:27:13;10.83;;;2.53;;
7375;SDS011;3728;42.266;24.944;2022-11-20T11:29:45;10.37;;;3.90;;
7375;SDS011;3728;42.266;24.944;2022-11-20T11:32:14;11.20;;;2.40;;
7375;SDS011;3728;42.266;24.944;2022-11-20T11:34:58;11.60;;;3.10;;
7375;SDS011;3728;42.266;24.944;2022-11-20T11:37:35;9.87;;;3.13;;
7375;SDS011;3728;42.266;24.944;2022-11-20T11:40:05;8.47;;;2.20;;
7375;SDS011;3728;42.266;24.944;2022-11-20T11:42:53;12.53;;;2.20;;
7375;SDS011;3728;42.266;24.944;2022-11-20T11:45:24;14.47;;;2.90;;
7375;SDS011;3728;42.266;24.944;2022-11-20T11:47:57;9.60;;;2.90;;
7375;SDS011;3728;42.266;24.944;2022-11-20T11:50:28;15.67;;;3.13;;
7375;SDS011;3728;42.266;24.944;2022-11-20T11:53:13;12.00;;;2.80;;
7375;SDS011;3728;42.266;24.944;2022-11-20T11:55:45;13.60;;;2.90;;
7375;SDS011;3728;42.266;24.944;2022-11-20T12:04:16;18.07;;;2.93;;
7375;SDS011;3728;42.266;24.944;2022-11-20T12:07:15;19.57;;;3.43;;
7375;SDS011;3728;42.266;24.944;2022-11-20T12:10:17;13.27;;;3.60;;
7375;SDS011;3728;42.266;24.944;2022-11-20T12:12:50;15.30;;;3.00;;
7375;SDS011;3728;42.266;24.944;2022-11-20T12:15:30;14.50;;;3.73;;
7375;SDS011;3728;42.266;24.944;2022-11-20T12:18:00;19.27;;;3.40;;
7375;SDS011;3728;42.266;24.944;2022-11-20T12:20:29;23.07;;;3.47;;
7375;SDS011;3728;42.266;24.944;2022-11-20T12:23:09;14.70;;;3.63;;
7375;SDS011;3728;42.266;24.944;2022-11-20T12:25:48;18.33;;;3.47;;
7375;SDS011;3728;42.266;24.944;2022-11-20T12:28:44;16.87;;;3.80;;
7375;SDS011;3728;42.266;24.944;2022-11-20T12:39:55;13.80;;;3.75;;
7375;SDS011;3728;42.266;24.944;2022-11-20T12:52:17;15.77;;;3.47;;
7375;SDS011;3728;42.266;24.944;2022-11-20T12:55:11;15.80;;;3.13;;
7375;SDS011;3728;42.266;24.944;2022-11-20T12:57:54;17.83;;;3.70;;
7375;SDS011;3728;42.266;24.944;2022-11-20T13:00:28;19.55;;;3.78;;
7375;SDS011;3728;42.266;24.944;2022-11-20T13:05:59;17.77;;;5.68;;
7375;SDS011;3728;42.266;24.944;2022-11-20T13:08:53;18.60;;;7.18;;
7375;SDS011;3728;42.266;24.944;2022-11-20T13:14:16;12.27;;;5.38;;
7375;SDS011;3728;42.266;24.944;2022-11-20T13:19:56;17.15;;;4.30;;
7375;SDS011;3728;42.266;24.944;2022-11-20T13:22:42;23.55;;;4.25;;
7375;SDS011;3728;42.266;24.944;2022-11-20T13:27:57;21.60;;;3.75;;
7375;SDS011;3728;42.266;24.944;2022-11-20T13:30:28;24.73;;;4.10;;
7375;SDS011;3728;42.266;24.944;2022-11-20T13:33:32;21.42;;;3.72;;
7375;SDS011;3728;42.266;24.944;2022-11-20T13:36:06;26.00;;;4.23;;
7375;SDS011;3728;42.266;24.944;2022-11-20T13:38:49;18.08;;;4.25;;
7375;SDS011;3728;42.266;24.944;2022-11-20T13:53:19;36.87;;;13.63;;
7375;SDS011;3728;42.266;24.944;2022-11-20T13:56:34;43.40;;;11.43;;
7375;SDS011;3728;42.266;24.944;2022-11-20T14:02:15;26.40;;;9.00;;
7375;SDS011;3728;42.266;24.944;2022-11-20T14:04:46;28.33;;;9.57;;
7375;SDS011;3728;42.266;24.944;2022-11-20T14:07:17;38.53;;;10.00;;
7375;SDS011;3728;42.266;24.944;2022-11-20T14:09:50;24.27;;;9.67;;
7375;SDS011;3728;42.266;24.944;2022-11-20T14:12:27;23.07;;;7.73;;
7375;SDS011;3728;42.266;24.944;2022-11-20T14:14:58;31.37;;;10.03;;
7375;SDS011;3728;42.266;24.944;2022-11-20T14:17:32;37.03;;;15.30;;
7375;SDS011;3728;42.266;24.944;2022-11-20T14:20:03;27.80;;;11.13;;
7375;SDS011;3728;42.266;24.944;2022-11-20T14:22:37;12.70;;;5.47;;
7375;SDS011;3728;42.266;24.944;2022-11-20T14:25:25;15.27;;;5.13;;
7375;SDS011;3728;42.266;24.944;2022-11-20T14:27:54;12.53;;;4.10;;
7375;SDS011;3728;42.266;24.944;2022-11-20T14:30:29;10.80;;;3.50;;
7375;SDS011;3728;42.266;24.944;2022-11-20T14:33:12;6.60;;;3.40;;
7375;SDS011;3728;42.266;24.944;2022-11-20T14:35:52;7.17;;;3.00;;
7375;SDS011;3728;42.266;24.944;2022-11-20T14:38:26;13.83;;;3.03;;
7375;SDS011;3728;42.266;24.944;2022-11-20T14:41:05;13.53;;;5.30;;
7375;SDS011;3728;42.266;24.944;2022-11-20T14:43:36;11.97;;;4.20;;
7375;SDS011;3728;42.266;24.944;2022-11-20T14:46:06;7.67;;;3.93;;
7375;SDS011;3728;42.266;24.944;2022-11-20T14:48:38;14.30;;;4.00;;
7375;SDS011;3728;42.266;24.944;2022-11-20T14:56:37;17.77;;;7.20;;
7375;SDS011;3728;42.266;24.944;2022-11-20T14:59:08;12.50;;;5.33;;
7375;SDS011;3728;42.266;24.944;2022-11-20T15:01:36;13.60;;;4.23;;
7375;SDS011;3728;42.266;24.944;2022-11-20T15:04:09;23.70;;;8.23;;
7375;SDS011;3728;42.266;24.944;2022-11-20T15:06:48;19.33;;;7.20;;
7375;SDS011;3728;42.266;24.944;2022-11-20T15:09:25;25.23;;;11.50;;
7375;SDS011;3728;42.266;24.944;2022-11-20T15:12:02;25.70;;;15.60;;
7375;SDS011;3728;42.266;24.944;2022-11-20T15:14:31;17.20;;;8.37;;
7375;SDS011;3728;42.266;24.944;2022-11-20T15:17:00;14.43;;;3.80;;
7375;SDS011;3728;42.266;24.944;2022-11-20T15:19:29;11.77;;;3.13;;
7375;SDS011;3728;42.266;24.944;2022-11-20T15:21:58;8.53;;;3.30;;
7375;SDS011;3728;42.266;24.944;2022-11-20T15:24:26;11.30;;;4.03;;
7375;SDS011;3728;42.266;24.944;2022-11-20T15:26:59;30.83;;;15.03;;
7375;SDS011;3728;42.266;24.944;2022-11-20T15:29:30;24.63;;;12.93;;
7375;SDS011;3728;42.266;24.944;2022-11-20T15:32:00;17.00;;;10.23;;
7375;SDS011;3728;42.266;24.944;2022-11-20T15:34:40;10.87;;;6.53;;
7375;SDS011;3728;42.266;24.944;2022-11-20T15:37:09;12.10;;;6.93;;
7375;SDS011;3728;42.266;24.944;2022-11-20T15:39:44;21.33;;;10.57;;
7375;SDS011;3728;42.266;24.944;2022-11-20T15:42:14;24.20;;;11.00;;
7375;SDS011;3728;42.266;24.944;2022-11-20T15:44:44;24.83;;;8.00;;
7375;SDS011;3728;42.266;24.944;2022-11-20T15:47:12;17.67;;;7.20;;
7375;SDS011;3728;42.266;24.944;2022-11-20T15:49:40;16.00;;;7.00;;
7375;SDS011;3728;42.266;24.944;2022-11-20T15:52:10;15.50;;;7.73;;
7375;SDS011;3728;42.266;24.944;2022-11-20T15:55:09;23.23;;;12.57;;
7375;SDS011;3728;42.266;24.944;2022-11-20T15:57:42;21.10;;;11.77;;
7375;SDS011;3728;42.266;24.944;2022-11-20T16:00:10;27.53;;;14.73;;
7375;SDS011;3728;42.266;24.944;2022-11-20T16:02:38;32.40;;;14.87;;
7375;SDS011;3728;42.266;24.944;2022-11-20T16:05:17;35.27;;;17.60;;
7375;SDS011;3728;42.266;24.944;2022-11-20T16:07:46;48.00;;;24.73;;
7375;SDS011;3728;42.266;24.944;2022-11-20T16:10:14;36.40;;;20.00;;
7375;SDS011;3728;42.266;24.944;2022-11-20T16:12:45;20.50;;;10.53;;
7375;SDS011;3728;42.266;24.944;2022-11-20T16:15:32;33.73;;;17.97;;
7375;SDS011;3728;42.266;24.944;2022-11-20T16:18:15;23.50;;;13.00;;
7375;SDS011;3728;42.266;24.944;2022-11-20T16:20:52;23.10;;;12.97;;
7375;SDS011;3728;42.266;24.944;2022-11-20T16:23:22;18.67;;;9.67;;
7375;SDS011;3728;42.266;24.944;2022-11-20T16:25:50;19.40;;;7.33;;
7375;SDS011;3728;42.266;24.944;2022-11-20T16:28:19;10.70;;;4.20;;
7375;SDS011;3728;42.266;24.944;2022-11-20T16:30:54;10.17;;;3.67;;
7375;SDS011;3728;42.266;24.944;2022-11-20T16:33:22;12.33;;;5.03;;
7375;SDS011;3728;42.266;24.944;2022-11-20T16:35:52;18.37;;;6.70;;
7375;SDS011;3728;42.266;24.944;2022-11-20T16:38:20;15.13;;;8.20;;
7375;SDS011;3728;42.266;24.944;2022-11-20T16:40:59;22.23;;;11.33;;
7375;SDS011;3728;42.266;24.944;2022-11-20T16:43:31;23.53;;;12.43;;
7375;SDS011;3728;42.266;24.944;2022-11-20T16:46:01;26.90;;;14.77;;
7375;SDS011;3728;42.266;24.944;2022-11-20T16:48:31;41.27;;;22.53;;
7375;SDS011;3728;42.266;24.944;2022-11-20T16:51:00;41.40;;;22.70;;
7375;SDS011;3728;42.266;24.944;2022-11-20T16:53:28;37.50;;;20.17;;
7375;SDS011;3728;42.266;24.944;2022-11-20T16:55:56;38.73;;;20.97;;
7375;SDS011;3728;42.266;24.944;2022-11-20T16:58:24;24.10;;;11.03;;
7375;SDS011;3728;42.266;24.944;2022-11-20T17:00:51;22.83;;;9.60;;
7375;SDS011;3728;42.266;24.944;2022-11-20T17:03:21;20.33;;;5.90;;
7375;SDS011;3728;42.266;24.944;2022-11-20T17:05:50;15.17;;;5.53;;